createdAt,value
2023-03-21T00:01:53.637Z,9.70
2023-03-21T00:04:22.085Z,9.70
2023-03-21T00:06:48.974Z,9.70
2023-03-21T00:09:15.877Z,9.70
2023-03-21T00:11:42.787Z,9.60
2023-03-21T00:14:15.156Z,9.60
2023-03-21T00:16:42.237Z,9.50
2023-03-21T00:19:10.404Z,9.40
2023-03-21T00:21:51.820Z,9.50
2023-03-21T00:24:25.913Z,9.50
2023-03-21T00:26:53.022Z,9.60
2023-03-21T00:29:19.866Z,9.60
2023-03-21T00:31:46.675Z,9.70
2023-03-21T00:36:45.255Z,9.80
2023-03-21T00:39:12.132Z,9.80
2023-03-21T00:41:42.777Z,9.90
2023-03-21T00:44:15.783Z,9.90
2023-03-21T00:46:54.469Z,9.90
2023-03-21T00:49:33.984Z,9.80
2023-03-21T00:52:14.552Z,9.70
2023-03-21T00:54:52.041Z,9.70
2023-03-21T00:57:21.979Z,9.70
2023-03-21T00:59:50.982Z,9.70
2023-03-21T01:02:22.803Z,9.80
2023-03-21T01:04:50.518Z,9.80
2023-03-21T01:07:17.276Z,9.80
2023-03-21T01:09:44.103Z,9.80
2023-03-21T01:12:11.046Z,9.80
2023-03-21T01:14:38.142Z,9.70
2023-03-21T01:17:05.477Z,9.70
2023-03-21T01:19:50.282Z,9.60
2023-03-21T01:22:18.238Z,9.60
2023-03-21T01:24:53.861Z,9.70
2023-03-21T01:27:22.126Z,9.70
2023-03-21T01:29:48.907Z,9.80
2023-03-21T01:32:15.643Z,9.70
2023-03-21T01:34:42.420Z,9.80
2023-03-21T01:37:09.379Z,9.80
2023-03-21T01:39:36.728Z,9.70
2023-03-21T01:42:03.555Z,9.70
2023-03-21T01:44:30.833Z,9.70
2023-03-21T01:47:13.410Z,9.70
2023-03-21T01:49:45.952Z,9.70
2023-03-21T01:52:33.492Z,9.70
2023-03-21T01:55:07.157Z,9.70
2023-03-21T01:57:49.236Z,9.80
2023-03-21T02:00:26.761Z,9.70
2023-03-21T02:03:09.534Z,9.50
2023-03-21T02:06:00.591Z,9.40
2023-03-21T02:08:38.689Z,9.40
2023-03-21T02:11:07.307Z,9.40
2023-03-21T02:13:34.504Z,9.40
2023-03-21T02:16:24.207Z,9.40
2023-03-21T02:19:06.667Z,9.50
2023-03-21T02:21:55.921Z,9.50
2023-03-21T02:24:46.271Z,9.50
2023-03-21T02:27:19.029Z,9.60
2023-03-21T02:30:02.169Z,9.60
2023-03-21T02:32:59.911Z,9.60
2023-03-21T02:35:54.422Z,9.60
2023-03-21T02:38:31.873Z,9.60
2023-03-21T02:41:10.130Z,9.70
2023-03-21T02:44:14.059Z,9.70
2023-03-21T02:46:59.714Z,9.70
2023-03-21T02:49:47.281Z,9.60
2023-03-21T02:52:37.326Z,9.70
2023-03-21T02:55:14.238Z,9.70
2023-03-21T02:57:46.683Z,9.70
2023-03-21T03:00:19.062Z,9.70
2023-03-21T03:02:47.555Z,9.70
2023-03-21T03:05:22.276Z,9.70
2023-03-21T03:08:07.844Z,9.80
2023-03-21T03:10:53.230Z,9.80
2023-03-21T03:13:48.499Z,9.60
2023-03-21T03:16:18.633Z,9.40
2023-03-21T03:18:53.579Z,9.40
2023-03-21T03:22:01.457Z,9.40
2023-03-21T03:24:39.579Z,9.30
2023-03-21T03:27:19.848Z,9.30
2023-03-21T03:29:49.227Z,9.40
2023-03-21T03:32:21.027Z,9.40
2023-03-21T03:34:56.294Z,9.40
2023-03-21T03:37:27.707Z,9.30
2023-03-21T03:40:06.963Z,9.40
2023-03-21T03:42:42.080Z,9.30
2023-03-21T03:45:10.955Z,9.20
2023-03-21T03:48:04.384Z,9.20
2023-03-21T03:50:40.002Z,9.10
2023-03-21T03:53:18.627Z,9.10
2023-03-21T03:55:47.480Z,9.10
2023-03-21T03:58:23.200Z,9.20
2023-03-21T04:00:53.667Z,9.20
2023-03-21T04:03:20.971Z,9.20
2023-03-21T04:05:47.780Z,9.20
2023-03-21T04:08:15.457Z,9.20
2023-03-21T04:10:54.350Z,9.30
2023-03-21T04:13:21.199Z,9.30
2023-03-21T04:15:48.047Z,9.30
2023-03-21T04:18:15.181Z,9.30
2023-03-21T04:20:42.344Z,9.30
2023-03-21T04:23:09.077Z,9.30
2023-03-21T04:25:38.614Z,9.30
2023-03-21T04:28:07.277Z,9.30
2023-03-21T04:30:34.208Z,9.20
2023-03-21T04:33:01.270Z,9.10
2023-03-21T04:35:28.565Z,9.00
2023-03-21T04:37:55.960Z,9.00
2023-03-21T04:40:24.748Z,9.00
2023-03-21T04:42:51.786Z,9.00
2023-03-21T04:45:18.559Z,9.10
2023-03-21T04:47:45.624Z,9.10
2023-03-21T04:50:13.750Z,9.10
2023-03-21T04:52:40.642Z,9.20
2023-03-21T04:55:10.241Z,9.20
2023-03-21T04:57:38.385Z,9.30
2023-03-21T05:00:10.609Z,9.20
2023-03-21T05:02:38.653Z,9.20
2023-03-21T05:05:05.974Z,9.20
2023-03-21T05:07:32.856Z,9.20
2023-03-21T05:10:02.213Z,9.10
2023-03-21T05:12:29.286Z,9.20
2023-03-21T05:14:56.056Z,9.30
2023-03-21T05:17:28.508Z,9.30
2023-03-21T05:19:56.481Z,9.40
2023-03-21T05:22:24.738Z,9.40
2023-03-21T05:24:51.568Z,9.40
2023-03-21T05:27:34.318Z,9.40
2023-03-21T05:30:04.024Z,9.40
2023-03-21T05:32:31.098Z,9.30
2023-03-21T05:34:57.999Z,9.30
2023-03-21T05:37:24.955Z,9.30
2023-03-21T05:39:52.187Z,9.40
2023-03-21T05:42:19.594Z,9.40
2023-03-21T05:44:46.790Z,9.50
2023-03-21T05:47:14.732Z,9.40
2023-03-21T05:49:41.704Z,9.40
2023-03-21T05:52:08.751Z,9.40
2023-03-21T05:54:36.423Z,9.30
2023-03-21T05:57:04.628Z,9.30
2023-03-21T05:59:31.435Z,9.30
2023-03-21T06:01:58.376Z,9.40
2023-03-21T06:04:25.748Z,9.40
2023-03-21T06:06:53.708Z,9.40
2023-03-21T06:09:22.416Z,9.40
2023-03-21T06:11:51.912Z,9.40
2023-03-21T06:14:20.077Z,9.50
2023-03-21T06:16:46.875Z,9.50
2023-03-21T06:19:14.035Z,9.50
2023-03-21T06:21:41.125Z,9.60
2023-03-21T06:24:08.425Z,9.50
2023-03-21T06:26:35.339Z,9.60
2023-03-21T06:29:02.400Z,9.60
2023-03-21T06:31:29.233Z,9.50
2023-03-21T06:33:56.093Z,9.60
2023-03-21T06:36:36.716Z,9.70
2023-03-21T06:39:04.909Z,9.70
2023-03-21T06:41:31.656Z,9.70
2023-03-21T06:43:58.568Z,9.60
2023-03-21T06:46:25.425Z,9.70
2023-03-21T06:48:52.205Z,9.70
2023-03-21T06:51:19.063Z,9.50
2023-03-21T06:53:45.938Z,9.60
2023-03-21T06:56:14.426Z,9.60
2023-03-21T06:58:41.532Z,9.70
2023-03-21T07:01:08.524Z,9.70
2023-03-21T07:03:35.554Z,9.60
2023-03-21T07:06:13.670Z,9.60
2023-03-21T07:08:41.545Z,9.70
2023-03-21T07:11:09.660Z,9.80
2023-03-21T07:13:36.774Z,9.80
2023-03-21T07:16:03.791Z,9.90
2023-03-21T07:18:31.092Z,10.10
2023-03-21T07:20:58.640Z,10.10
2023-03-21T07:23:26.389Z,10.20
2023-03-21T07:25:54.248Z,10.10
2023-03-21T07:28:22.224Z,10.10
2023-03-21T07:30:55.412Z,10.10
2023-03-21T07:33:23.209Z,10.20
2023-03-21T07:35:51.472Z,10.40
2023-03-21T07:38:19.111Z,10.50
2023-03-21T07:40:47.292Z,10.40
2023-03-21T07:43:15.499Z,10.60
2023-03-21T07:45:42.873Z,10.50
2023-03-21T07:48:12.918Z,10.60
2023-03-21T07:50:41.048Z,10.70
2023-03-21T07:53:08.873Z,10.80
2023-03-21T07:55:36.263Z,10.70
2023-03-21T07:58:04.099Z,10.90
2023-03-21T08:00:31.580Z,11.00
2023-03-21T08:02:59.711Z,11.10
2023-03-21T08:05:34.551Z,11.10
2023-03-21T08:08:02.011Z,11.20
2023-03-21T08:10:29.284Z,11.50
2023-03-21T08:12:56.549Z,11.70
2023-03-21T08:15:23.740Z,11.80
2023-03-21T08:17:50.657Z,11.80
2023-03-21T08:20:21.204Z,11.80
2023-03-21T08:22:49.394Z,11.80
2023-03-21T08:25:18.227Z,11.70
2023-03-21T08:27:46.697Z,11.70
2023-03-21T08:30:16.560Z,11.90
2023-03-21T08:32:44.341Z,12.10
2023-03-21T08:35:13.687Z,12.30
2023-03-21T08:37:41.391Z,12.30
2023-03-21T08:40:13.399Z,12.40
2023-03-21T08:42:42.001Z,12.40
2023-03-21T08:45:10.129Z,12.40
2023-03-21T08:47:37.231Z,12.40
2023-03-21T08:50:06.860Z,12.20
2023-03-21T08:52:34.145Z,12.20
2023-03-21T08:55:02.269Z,12.50
2023-03-21T08:57:30.064Z,12.70
2023-03-21T08:59:57.165Z,12.90
2023-03-21T09:02:24.184Z,13.00
2023-03-21T09:04:54.905Z,13.30
2023-03-21T09:07:22.275Z,13.40
2023-03-21T09:10:08.144Z,13.60
2023-03-21T09:12:39.283Z,13.60
2023-03-21T09:15:07.443Z,13.30
2023-03-21T09:17:34.402Z,13.10
2023-03-21T09:20:05.229Z,13.10
2023-03-21T09:22:32.480Z,13.20
2023-03-21T09:24:59.284Z,13.00
2023-03-21T09:27:28.207Z,12.90
2023-03-21T09:29:55.627Z,13.00
2023-03-21T09:32:22.375Z,13.40
2023-03-21T09:34:49.124Z,13.50
2023-03-21T09:37:16.543Z,13.50
2023-03-21T09:39:45.445Z,13.50
2023-03-21T09:42:34.122Z,13.70
2023-03-21T09:45:25.961Z,13.70
2023-03-21T09:47:54.048Z,14.00
2023-03-21T09:50:27.371Z,14.20
2023-03-21T09:53:05.861Z,14.40
2023-03-21T09:55:37.823Z,14.40
2023-03-21T09:58:05.004Z,14.50
2023-03-21T10:00:40.154Z,14.50
2023-03-21T10:03:26.171Z,14.60
2023-03-21T10:05:58.852Z,14.20
2023-03-21T10:08:32.098Z,14.20
2023-03-21T10:11:21.733Z,14.60
2023-03-21T10:14:19.465Z,14.90
2023-03-21T10:16:52.598Z,15.00
2023-03-21T10:19:20.305Z,15.30
2023-03-21T10:22:00.861Z,15.40
2023-03-21T10:24:31.874Z,15.50
2023-03-21T10:26:59.256Z,15.30
2023-03-21T10:29:32.682Z,15.00
2023-03-21T10:32:00.523Z,14.70
2023-03-21T10:34:38.163Z,14.90
2023-03-21T10:37:05.911Z,14.80
2023-03-21T10:39:36.800Z,14.90
2023-03-21T10:42:04.162Z,15.30
2023-03-21T10:44:34.206Z,15.50
2023-03-21T10:47:08.730Z,15.60
2023-03-21T10:50:13.049Z,15.20
2023-03-21T10:52:28.815Z,15.50
2023-03-21T10:55:28.943Z,15.90
2023-03-21T10:58:08.691Z,15.90
2023-03-21T11:00:39.444Z,16.10
2023-03-21T11:03:07.066Z,16.30
2023-03-21T11:05:40.906Z,16.10
2023-03-21T11:08:15.301Z,16.00
2023-03-21T11:11:02.212Z,15.80
2023-03-21T11:13:45.276Z,16.00
2023-03-21T11:16:23.202Z,16.10
2023-03-21T11:18:51.932Z,16.20
2023-03-21T11:21:20.090Z,16.10
2023-03-21T11:23:51.897Z,16.20
2023-03-21T11:26:30.495Z,16.40
2023-03-21T11:28:57.952Z,16.50
2023-03-21T11:31:41.111Z,16.60
2023-03-21T11:34:09.592Z,16.60
2023-03-21T11:36:39.175Z,16.50
2023-03-21T11:39:15.421Z,16.50
2023-03-21T11:41:47.454Z,16.60
2023-03-21T11:44:43.009Z,16.50
2023-03-21T11:47:11.389Z,16.50
2023-03-21T11:49:38.320Z,16.40
2023-03-21T11:52:38.011Z,16.30
2023-03-21T11:55:11.407Z,16.50
2023-03-21T11:58:13.535Z,16.70
2023-03-21T12:01:01.170Z,16.80
2023-03-21T12:03:45.139Z,16.90
2023-03-21T12:06:38.633Z,16.90
2023-03-21T12:09:34.204Z,16.80
2023-03-21T12:12:29.986Z,16.80
2023-03-21T12:15:41.910Z,16.90
2023-03-21T12:18:35.854Z,16.90
2023-03-21T12:21:27.890Z,16.90
2023-03-21T12:24:11.775Z,16.80
2023-03-21T12:26:50.350Z,16.70
2023-03-21T12:29:30.095Z,16.80
2023-03-21T12:32:35.605Z,17.00
2023-03-21T12:35:29.019Z,17.20
2023-03-21T12:38:16.058Z,17.10
2023-03-21T12:40:48.846Z,16.70
2023-03-21T12:43:23.033Z,16.30
2023-03-21T12:45:55.792Z,16.40
2023-03-21T12:48:33.702Z,16.60
2023-03-21T12:51:04.098Z,16.80
2023-03-21T12:54:10.882Z,16.80
2023-03-21T12:56:46.702Z,16.70
2023-03-21T12:59:40.639Z,16.70
2023-03-21T13:02:28.928Z,16.70
2023-03-21T13:05:27.620Z,16.70
2023-03-21T13:08:10.061Z,16.70
2023-03-21T13:10:37.228Z,16.60
2023-03-21T13:13:09.943Z,16.70
2023-03-21T13:15:58.127Z,16.70
2023-03-21T13:18:59.136Z,16.70
2023-03-21T13:21:28.709Z,16.80
2023-03-21T13:24:26.196Z,16.80
2023-03-21T13:27:04.290Z,16.80
2023-03-21T13:29:32.894Z,16.80
2023-03-21T13:32:25.027Z,16.70
2023-03-21T13:35:09.722Z,16.60
2023-03-21T13:37:49.098Z,16.50
2023-03-21T13:40:37.722Z,16.50
2023-03-21T13:43:04.948Z,16.50
2023-03-21T13:45:51.267Z,16.60
2023-03-21T13:49:04.194Z,16.70
2023-03-21T13:51:36.989Z,16.70
2023-03-21T13:54:18.162Z,16.80
2023-03-21T13:56:45.258Z,16.80
2023-03-21T13:59:17.648Z,16.80
2023-03-21T14:02:17.737Z,16.90
2023-03-21T14:05:03.649Z,17.00
2023-03-21T14:07:34.942Z,17.00
2023-03-21T14:10:06.644Z,17.00
2023-03-21T14:12:44.549Z,17.00
2023-03-21T14:15:20.293Z,16.90
2023-03-21T14:17:51.453Z,16.90
2023-03-21T14:20:32.954Z,16.90
2023-03-21T14:23:00.277Z,16.90
2023-03-21T14:25:44.385Z,17.00
2023-03-21T14:28:29.818Z,16.90
2023-03-21T14:31:00.548Z,16.90
2023-03-21T14:33:35.694Z,16.90
2023-03-21T14:36:10.707Z,16.70
2023-03-21T14:38:39.970Z,16.80
2023-03-21T14:41:21.600Z,16.70
2023-03-21T14:44:25.402Z,16.70
2023-03-21T14:47:06.376Z,16.60
2023-03-21T14:49:37.986Z,16.50
2023-03-21T14:52:10.286Z,16.50
2023-03-21T14:54:41.259Z,16.50
2023-03-21T14:57:14.410Z,16.50
2023-03-21T14:59:42.342Z,16.60
2023-03-21T15:02:32.920Z,16.50
2023-03-21T15:05:21.957Z,16.50
2023-03-21T15:08:01.029Z,16.50
2023-03-21T15:10:31.146Z,16.50
2023-03-21T15:13:13.491Z,16.50
2023-03-21T15:15:41.498Z,16.60
2023-03-21T15:18:11.267Z,16.60
2023-03-21T15:20:39.232Z,16.70
2023-03-21T15:23:26.493Z,16.70
2023-03-21T15:25:53.844Z,16.60
2023-03-21T15:28:21.044Z,16.60
2023-03-21T15:30:53.010Z,16.70
2023-03-21T15:33:20.737Z,16.60
2023-03-21T15:35:54.248Z,16.60
2023-03-21T15:38:24.648Z,16.50
2023-03-21T15:40:52.200Z,16.40
2023-03-21T15:43:20.070Z,16.30
2023-03-21T15:45:55.481Z,16.30
2023-03-21T15:48:26.951Z,16.40
2023-03-21T15:51:06.211Z,16.50
2023-03-21T15:53:34.899Z,16.50
2023-03-21T15:56:05.955Z,16.60
2023-03-21T15:58:41.645Z,16.70
2023-03-21T16:01:17.897Z,16.70
2023-03-21T16:03:56.635Z,16.60
2023-03-21T16:06:31.082Z,16.50
2023-03-21T16:09:06.498Z,16.50
2023-03-21T16:11:55.247Z,16.40
2023-03-21T16:14:23.543Z,16.40
2023-03-21T16:16:51.021Z,16.40
2023-03-21T16:19:18.391Z,16.30
2023-03-21T16:21:46.038Z,16.30
2023-03-21T16:24:13.516Z,16.30
2023-03-21T16:26:47.635Z,16.30
2023-03-21T16:29:15.753Z,16.30
2023-03-21T16:31:43.573Z,16.30
2023-03-21T16:34:10.856Z,16.30
2023-03-21T16:36:40.331Z,16.30
2023-03-21T16:39:23.019Z,16.20
2023-03-21T16:41:51.636Z,16.20
2023-03-21T16:44:18.919Z,16.20
2023-03-21T16:46:47.313Z,16.10
2023-03-21T16:49:19.066Z,16.10
2023-03-21T16:51:45.876Z,16.00
2023-03-21T16:54:12.662Z,16.00
2023-03-21T16:56:49.024Z,16.00
2023-03-21T16:59:15.816Z,15.90
2023-03-21T17:01:46.147Z,15.80
2023-03-21T17:04:13.750Z,15.70
2023-03-21T17:06:47.586Z,15.70
2023-03-21T17:09:16.335Z,15.70
2023-03-21T17:11:43.732Z,15.70
2023-03-21T17:14:11.997Z,15.60
2023-03-21T17:16:40.504Z,15.60
2023-03-21T17:19:18.682Z,15.60
2023-03-21T17:21:45.746Z,15.70
2023-03-21T17:24:12.852Z,15.70
2023-03-21T17:26:39.771Z,15.70
2023-03-21T17:29:07.327Z,15.70
2023-03-21T17:31:37.273Z,15.70
2023-03-21T17:34:04.681Z,15.60
2023-03-21T17:36:36.811Z,15.60
2023-03-21T17:39:09.126Z,15.50
2023-03-21T17:41:35.977Z,15.50
2023-03-21T17:44:03.201Z,15.50
2023-03-21T17:46:34.261Z,15.50
2023-03-21T17:49:01.150Z,15.50
2023-03-21T17:51:30.357Z,15.50
2023-03-21T17:53:57.506Z,15.50
2023-03-21T17:56:26.895Z,15.40
2023-03-21T17:58:54.540Z,15.40
2023-03-21T18:01:23.327Z,15.20
2023-03-21T18:03:51.465Z,15.10
2023-03-21T18:06:21.697Z,15.10
2023-03-21T18:08:49.472Z,15.10
2023-03-21T18:11:17.463Z,15.10
2023-03-21T18:13:45.121Z,15.10
2023-03-21T18:16:23.863Z,15.20
2023-03-21T18:18:53.798Z,15.10
2023-03-21T18:21:22.765Z,15.10
2023-03-21T18:23:50.207Z,15.00
2023-03-21T18:26:19.780Z,15.00
2023-03-21T18:29:15.070Z,14.90
2023-03-21T18:31:34.982Z,14.80
2023-03-21T18:34:01.736Z,14.70
2023-03-21T18:36:29.176Z,14.60
2023-03-21T18:38:56.862Z,14.60
2023-03-21T18:41:23.866Z,14.40
2023-03-21T18:44:14.734Z,14.40
2023-03-21T18:46:40.553Z,14.40
2023-03-21T18:49:42.175Z,14.40
2023-03-21T18:51:54.619Z,14.40
2023-03-21T18:54:21.422Z,14.30
2023-03-21T18:57:34.588Z,14.30
2023-03-21T18:59:39.350Z,14.30
2023-03-21T19:02:07.562Z,14.20
2023-03-21T19:04:34.505Z,14.10
2023-03-21T19:07:01.370Z,14.00
2023-03-21T19:09:31.963Z,13.80
2023-03-21T19:11:59.884Z,13.60
2023-03-21T19:14:27.384Z,13.70
2023-03-21T19:17:43.597Z,13.70
2023-03-21T19:19:43.763Z,13.70
2023-03-21T19:22:11.312Z,13.60
2023-03-21T19:24:39.625Z,13.60
2023-03-21T19:27:06.984Z,13.50
2023-03-21T19:29:34.004Z,13.50
2023-03-21T19:32:01.121Z,13.60
2023-03-21T19:34:29.367Z,13.50
2023-03-21T19:36:57.489Z,13.30
2023-03-21T19:39:25.149Z,13.10
2023-03-21T19:41:55.341Z,13.20
2023-03-21T19:44:30.933Z,13.00
2023-03-21T19:46:57.946Z,13.00
2023-03-21T19:49:37.005Z,13.00
2023-03-21T19:52:13.424Z,12.90
2023-03-21T19:54:40.268Z,12.80
2023-03-21T19:57:09.628Z,12.70
2023-03-21T19:59:36.547Z,12.70
2023-03-21T20:02:27.130Z,12.60
2023-03-21T20:04:50.520Z,12.60
2023-03-21T20:07:17.308Z,12.50
2023-03-21T20:09:51.950Z,12.50
2023-03-21T20:12:20.661Z,12.60
2023-03-21T20:14:49.271Z,12.60
2023-03-21T20:17:16.896Z,12.50
2023-03-21T20:19:43.733Z,12.40
2023-03-21T20:22:21.862Z,12.40
2023-03-21T20:24:54.198Z,12.30
2023-03-21T20:27:24.339Z,12.30
2023-03-21T20:32:43.830Z,12.40
2023-03-21T20:35:21.044Z,12.40
2023-03-21T20:37:54.386Z,12.40
2023-03-21T20:40:21.664Z,12.40
2023-03-21T20:42:50.293Z,12.30
2023-03-21T20:45:17.685Z,12.30
2023-03-21T20:47:44.598Z,12.20
2023-03-21T20:50:21.985Z,12.10
2023-03-21T20:53:05.426Z,12.10
2023-03-21T20:55:34.288Z,12.10
2023-03-21T20:58:02.200Z,12.00
2023-03-21T21:00:30.105Z,12.00
2023-03-21T21:02:58.083Z,12.10
2023-03-21T21:05:30.550Z,12.10
2023-03-21T21:07:59.134Z,12.00
2023-03-21T21:10:26.245Z,11.90
2023-03-21T21:12:53.363Z,12.00
2023-03-21T21:15:20.217Z,12.10
2023-03-21T21:20:36.762Z,12.10
2023-03-21T21:23:04.346Z,12.20
2023-03-21T21:25:33.491Z,12.20
2023-03-21T21:28:01.730Z,12.20
2023-03-21T21:30:29.567Z,12.20
2023-03-21T21:32:59.540Z,12.20
2023-03-21T21:35:26.968Z,12.10
2023-03-21T21:37:53.835Z,12.10
2023-03-21T21:40:23.313Z,12.00
2023-03-21T21:42:50.236Z,11.90
2023-03-21T21:45:18.332Z,11.90
2023-03-21T21:47:46.388Z,11.90
2023-03-21T21:50:13.496Z,11.90
2023-03-21T21:52:43.710Z,11.80
2023-03-21T21:55:10.868Z,11.80
2023-03-21T21:57:39.775Z,11.80
2023-03-21T22:00:12.774Z,11.80
2023-03-21T22:02:40.759Z,11.70
2023-03-21T22:05:09.031Z,11.60
2023-03-21T22:07:37.459Z,11.50
2023-03-21T22:10:05.028Z,11.60
2023-03-21T22:12:32.363Z,11.60
2023-03-21T22:14:59.218Z,11.70
2023-03-21T22:17:26.244Z,11.70
2023-03-21T22:20:05.002Z,11.70
2023-03-21T22:22:34.469Z,11.70
2023-03-21T22:25:01.304Z,11.70
2023-03-21T22:27:28.097Z,11.60
2023-03-21T22:29:54.821Z,11.70
2023-03-21T22:32:21.563Z,11.70
2023-03-21T22:34:48.294Z,11.60
2023-03-21T22:37:21.113Z,11.50
2023-03-21T22:39:47.770Z,11.60
2023-03-21T22:42:14.537Z,11.70
2023-03-21T22:44:41.335Z,11.70
2023-03-21T22:47:10.651Z,11.60
2023-03-21T22:49:38.571Z,11.70
2023-03-21T22:52:06.422Z,11.70
2023-03-21T22:54:33.353Z,11.70
2023-03-21T22:57:00.529Z,11.60
2023-03-21T22:59:27.918Z,11.50
2023-03-21T23:01:54.984Z,11.50
2023-03-21T23:04:21.824Z,11.50
2023-03-21T23:06:48.720Z,11.60
2023-03-21T23:09:17.494Z,11.60
2023-03-21T23:11:46.233Z,11.60
2023-03-21T23:14:15.297Z,11.50
2023-03-21T23:16:42.828Z,11.40
2023-03-21T23:19:11.032Z,11.40
2023-03-21T23:21:38.508Z,11.40
2023-03-21T23:24:06.485Z,11.50
2023-03-21T23:26:34.174Z,11.60
2023-03-21T23:29:00.879Z,11.60
2023-03-21T23:31:28.038Z,11.70
2023-03-21T23:33:57.657Z,11.80
2023-03-21T23:36:24.460Z,11.80
2023-03-21T23:38:51.258Z,11.60
2023-03-21T23:41:21.034Z,11.40
2023-03-21T23:43:48.613Z,11.50
2023-03-21T23:46:16.648Z,11.50
2023-03-21T23:48:44.630Z,11.60
2023-03-21T23:51:12.987Z,11.60
2023-03-21T23:53:40.126Z,11.60
2023-03-21T23:56:22.009Z,11.50
2023-03-21T23:58:52.776Z,11.50
